createdAt,value
2022-09-13T00:01:03.045Z,1.35
2022-09-13T00:03:29.808Z,1.70
2022-09-13T00:05:56.941Z,1.70
2022-09-13T00:08:23.979Z,1.50
2022-09-13T00:10:50.677Z,1.58
2022-09-13T00:13:18.002Z,1.48
2022-09-13T00:15:46.754Z,1.70
2022-09-13T00:18:14.628Z,1.77
2022-09-13T00:20:41.300Z,1.90
2022-09-13T00:23:08.222Z,1.70
2022-09-13T00:25:34.998Z,2.28
2022-09-13T00:28:01.878Z,2.30
2022-09-13T00:30:28.654Z,1.88
2022-09-13T00:32:56.046Z,2.00
2022-09-13T00:35:23.778Z,2.05
2022-09-13T00:37:50.819Z,2.05
2022-09-13T00:40:17.598Z,2.95
2022-09-13T00:42:44.287Z,2.10
2022-09-13T00:45:10.871Z,2.20
2022-09-13T00:47:46.855Z,2.05
2022-09-13T00:50:26.475Z,1.70
2022-09-13T00:52:58.604Z,2.20
2022-09-13T00:55:50.814Z,2.20
2022-09-13T00:58:25.877Z,2.00
2022-09-13T01:00:55.607Z,2.35
2022-09-13T01:03:25.668Z,2.30
2022-09-13T01:06:08.469Z,2.10
2022-09-13T01:08:37.457Z,2.00
2022-09-13T01:11:11.930Z,1.92
2022-09-13T01:13:39.626Z,2.03
2022-09-13T01:16:06.701Z,2.10
2022-09-13T01:21:42.743Z,2.30
2022-09-13T01:24:28.706Z,2.17
2022-09-13T01:27:15.759Z,2.03
2022-09-13T01:30:16.169Z,2.10
2022-09-13T01:33:07.969Z,2.35
2022-09-13T01:35:53.095Z,2.10
2022-09-13T01:38:33.865Z,2.00
2022-09-13T01:41:20.029Z,2.00
2022-09-13T01:44:05.501Z,2.33
2022-09-13T01:46:54.842Z,2.22
2022-09-13T01:49:35.623Z,1.90
2022-09-13T01:52:14.904Z,2.13
2022-09-13T01:55:06.396Z,2.20
2022-09-13T01:57:41.021Z,2.00
2022-09-13T02:00:16.773Z,2.03
2022-09-13T02:02:46.687Z,1.77
2022-09-13T02:05:40.082Z,1.90
2022-09-13T02:08:13.255Z,2.03
2022-09-13T02:10:47.917Z,1.50
2022-09-13T02:13:19.601Z,1.70
2022-09-13T02:15:53.356Z,2.03
2022-09-13T02:18:28.016Z,1.83
2022-09-13T02:20:58.614Z,2.22
2022-09-13T02:23:41.927Z,2.45
2022-09-13T02:26:12.534Z,2.13
2022-09-13T02:28:44.764Z,2.20
2022-09-13T02:31:13.191Z,2.00
2022-09-13T02:33:44.694Z,2.30
2022-09-13T02:36:21.729Z,1.92
2022-09-13T02:38:57.206Z,1.80
2022-09-13T02:41:28.765Z,2.72
2022-09-13T02:44:09.552Z,2.17
2022-09-13T02:46:47.105Z,2.00
2022-09-13T02:49:51.523Z,1.80
2022-09-13T02:52:37.093Z,2.00
2022-09-13T02:55:30.893Z,2.17
2022-09-13T02:58:12.159Z,1.67
2022-09-13T03:00:39.085Z,2.05
2022-09-13T03:03:09.713Z,2.20
2022-09-13T03:05:36.571Z,2.53
2022-09-13T03:08:04.232Z,2.47
2022-09-13T03:10:54.933Z,2.15
2022-09-13T03:13:24.338Z,2.20
2022-09-13T03:16:06.795Z,2.53
2022-09-13T03:19:02.070Z,2.00
2022-09-13T03:21:52.753Z,2.20
2022-09-13T03:24:25.437Z,2.53
2022-09-13T03:27:23.674Z,2.40
2022-09-13T03:30:02.779Z,2.42
2022-09-13T03:32:51.162Z,2.70
2022-09-13T03:35:37.275Z,2.92
2022-09-13T03:38:21.801Z,2.95
2022-09-13T03:43:51.740Z,2.70
2022-09-13T03:48:52.293Z,2.97
2022-09-13T03:51:19.413Z,2.40
2022-09-13T03:53:53.040Z,2.20
2022-09-13T03:56:20.904Z,1.80
2022-09-13T03:58:48.264Z,1.80
2022-09-13T04:01:20.259Z,1.70
2022-09-13T04:03:47.252Z,1.50
2022-09-13T04:06:13.826Z,1.63
2022-09-13T04:08:40.428Z,1.40
2022-09-13T04:11:07.203Z,1.30
2022-09-13T04:13:33.775Z,1.52
2022-09-13T04:16:02.419Z,1.80
2022-09-13T04:18:29.900Z,1.60
2022-09-13T04:20:58.358Z,1.30
2022-09-13T04:23:27.909Z,1.48
2022-09-13T04:25:54.942Z,1.80
2022-09-13T04:28:22.375Z,1.70
2022-09-13T04:30:49.881Z,1.70
2022-09-13T04:33:19.789Z,2.40
2022-09-13T04:35:47.050Z,2.50
2022-09-13T04:38:13.688Z,2.75
2022-09-13T04:40:40.616Z,3.00
2022-09-13T04:43:07.261Z,3.83
2022-09-13T04:45:33.972Z,3.40
2022-09-13T04:48:00.633Z,3.40
2022-09-13T04:50:27.223Z,3.67
2022-09-13T04:52:56.725Z,4.10
2022-09-13T04:55:24.620Z,3.30
2022-09-13T04:57:56.388Z,3.70
2022-09-13T05:00:24.201Z,4.18
2022-09-13T05:02:56.105Z,3.78
2022-09-13T05:05:23.561Z,4.07
2022-09-13T05:07:51.256Z,3.97
2022-09-13T05:10:19.614Z,3.92
2022-09-13T05:12:46.427Z,4.40
2022-09-13T05:15:13.456Z,3.95
2022-09-13T05:17:40.338Z,4.05
2022-09-13T05:20:07.467Z,4.50
2022-09-13T05:22:34.065Z,4.10
2022-09-13T05:25:00.709Z,4.57
2022-09-13T05:27:27.282Z,4.63
2022-09-13T05:29:53.855Z,4.22
2022-09-13T05:32:20.469Z,4.05
2022-09-13T05:34:47.774Z,4.60
2022-09-13T05:37:14.435Z,4.35
2022-09-13T05:40:07.414Z,4.20
2022-09-13T05:42:27.678Z,4.78
2022-09-13T05:44:54.400Z,4.55
2022-09-13T05:47:21.171Z,4.72
2022-09-13T05:50:08.844Z,4.95
2022-09-13T05:52:34.307Z,4.53
2022-09-13T05:55:00.931Z,5.10
2022-09-13T05:57:27.508Z,4.90
2022-09-13T05:59:54.097Z,4.70
2022-09-13T06:02:20.916Z,5.22
2022-09-13T06:04:47.496Z,4.50
2022-09-13T06:07:14.074Z,5.07
2022-09-13T06:09:40.730Z,5.05
2022-09-13T06:12:07.424Z,4.65
2022-09-13T06:14:34.027Z,4.38
2022-09-13T06:17:00.616Z,5.15
2022-09-13T06:19:27.191Z,4.63
2022-09-13T06:21:53.782Z,4.88
2022-09-13T06:24:20.457Z,4.80
2022-09-13T06:26:47.036Z,5.22
2022-09-13T06:29:14.565Z,5.10
2022-09-13T06:31:45.057Z,4.35
2022-09-13T06:34:15.485Z,4.80
2022-09-13T06:36:42.845Z,5.45
2022-09-13T06:39:09.861Z,5.65
2022-09-13T06:41:37.458Z,5.57
2022-09-13T06:44:04.783Z,6.25
2022-09-13T06:46:33.739Z,5.50
2022-09-13T06:49:03.342Z,5.30
2022-09-13T06:51:30.518Z,5.70
2022-09-13T06:53:57.455Z,5.93
2022-09-13T06:56:28.297Z,5.38
2022-09-13T06:59:04.883Z,5.63
2022-09-13T07:01:43.422Z,5.70
2022-09-13T07:04:16.858Z,6.40
2022-09-13T07:06:46.883Z,13.07
2022-09-13T07:09:22.267Z,6.72
2022-09-13T07:11:51.631Z,5.90
2022-09-13T07:14:21.521Z,6.20
2022-09-13T07:16:48.799Z,5.85
2022-09-13T07:19:22.703Z,5.93
2022-09-13T07:21:50.156Z,6.47
2022-09-13T07:24:17.549Z,6.35
2022-09-13T07:26:44.995Z,6.20
2022-09-13T07:29:16.181Z,6.32
2022-09-13T07:31:44.758Z,5.80
2022-09-13T07:34:23.064Z,6.05
2022-09-13T07:36:50.332Z,6.55
2022-09-13T07:39:22.004Z,6.72
2022-09-13T07:41:49.665Z,7.28
2022-09-13T07:44:16.290Z,6.32
2022-09-13T07:46:45.948Z,6.70
2022-09-13T07:49:16.153Z,6.50
2022-09-13T07:51:43.933Z,6.80
2022-09-13T07:54:16.564Z,6.70
2022-09-13T07:56:43.467Z,6.40
2022-09-13T07:59:15.441Z,7.32
2022-09-13T08:01:48.523Z,6.55
2022-09-13T08:04:18.104Z,6.85
2022-09-13T08:06:45.485Z,6.45
2022-09-13T08:09:12.416Z,6.70
2022-09-13T08:11:52.800Z,7.30
2022-09-13T08:14:21.696Z,6.93
2022-09-13T08:16:48.355Z,7.15
2022-09-13T08:19:17.482Z,7.38
2022-09-13T08:21:44.831Z,7.25
2022-09-13T08:24:17.213Z,7.85
2022-09-13T08:26:44.502Z,7.15
2022-09-13T08:29:12.084Z,7.85
2022-09-13T08:31:38.682Z,7.80
2022-09-13T08:34:07.152Z,8.55
2022-09-13T08:36:33.699Z,11.05
2022-09-13T08:39:01.156Z,11.52
2022-09-13T08:41:46.177Z,11.35
2022-09-13T08:44:23.685Z,7.47
2022-09-13T08:46:51.143Z,7.85
2022-09-13T08:49:32.012Z,8.00
2022-09-13T08:52:15.403Z,7.18
2022-09-13T08:54:43.026Z,7.20
2022-09-13T08:57:28.370Z,7.18
2022-09-13T09:00:23.321Z,7.80
2022-09-13T09:03:15.070Z,6.93
2022-09-13T09:05:50.062Z,6.43
2022-09-13T09:08:38.203Z,7.00
2022-09-13T09:11:41.282Z,6.63
2022-09-13T09:14:20.154Z,6.70
2022-09-13T09:16:55.398Z,6.85
2022-09-13T09:19:35.149Z,7.20
2022-09-13T09:22:11.849Z,7.10
2022-09-13T09:24:40.576Z,6.95
2022-09-13T09:27:16.092Z,6.68
2022-09-13T09:29:44.547Z,7.47
2022-09-13T09:32:37.497Z,7.15
2022-09-13T09:35:38.317Z,6.63
2022-09-13T09:38:07.892Z,6.60
2022-09-13T09:40:38.220Z,6.68
2022-09-13T09:43:26.348Z,6.07
2022-09-13T09:45:57.207Z,6.47
2022-09-13T09:48:29.786Z,7.10
2022-09-13T09:51:01.338Z,6.38
2022-09-13T09:53:41.266Z,6.60
2022-09-13T09:56:31.923Z,6.75
2022-09-13T09:58:58.702Z,6.18
2022-09-13T10:01:26.624Z,5.82
2022-09-13T10:04:10.368Z,6.53
2022-09-13T10:06:42.367Z,5.68
2022-09-13T10:09:23.192Z,6.13
2022-09-13T10:11:54.307Z,6.32
2022-09-13T10:14:43.040Z,6.25
2022-09-13T10:17:25.080Z,6.13
2022-09-13T10:20:21.424Z,6.32
2022-09-13T10:23:11.073Z,6.32
2022-09-13T10:25:38.896Z,5.20
2022-09-13T10:28:11.685Z,5.25
2022-09-13T10:30:48.451Z,5.07
2022-09-13T10:33:40.186Z,5.20
2022-09-13T10:36:29.628Z,5.25
2022-09-13T10:39:17.775Z,4.82
2022-09-13T10:42:09.646Z,4.55
2022-09-13T10:44:46.531Z,4.60
2022-09-13T10:47:20.888Z,4.68
2022-09-13T10:49:52.730Z,4.70
2022-09-13T10:52:35.201Z,4.80
2022-09-13T10:55:25.707Z,4.20
2022-09-13T10:58:02.629Z,4.05
2022-09-13T11:01:01.597Z,4.32
2022-09-13T11:04:02.054Z,4.07
2022-09-13T11:06:50.358Z,4.90
2022-09-13T11:09:44.289Z,4.47
2022-09-13T11:12:40.181Z,5.10
2022-09-13T11:15:21.046Z,4.55
2022-09-13T11:18:03.529Z,4.60
2022-09-13T11:20:36.090Z,5.10
2022-09-13T11:23:40.207Z,5.15
2022-09-13T11:26:06.754Z,4.33
2022-09-13T11:29:15.680Z,4.55
2022-09-13T11:32:05.969Z,5.28
2022-09-13T11:35:07.728Z,4.70
2022-09-13T11:37:55.379Z,5.10
2022-09-13T11:40:35.596Z,4.95
2022-09-13T11:43:35.947Z,5.70
2022-09-13T11:46:14.953Z,5.60
2022-09-13T11:49:17.795Z,5.18
2022-09-13T11:51:59.384Z,5.72
2022-09-13T11:54:35.152Z,5.70
2022-09-13T11:57:11.375Z,5.88
2022-09-13T11:59:52.920Z,6.10
2022-09-13T12:02:34.291Z,6.22
2022-09-13T12:05:23.737Z,6.22
2022-09-13T12:07:53.759Z,6.25
2022-09-13T12:10:40.687Z,6.00
2022-09-13T12:13:14.749Z,5.75
2022-09-13T12:18:20.142Z,6.40
2022-09-13T12:21:13.081Z,6.70
2022-09-13T12:23:49.502Z,6.72
2022-09-13T12:26:20.838Z,6.68
2022-09-13T12:29:01.412Z,7.47
2022-09-13T12:31:30.800Z,6.93
2022-09-13T12:33:58.685Z,7.18
2022-09-13T12:36:37.272Z,6.65
2022-09-13T12:39:23.976Z,7.25
2022-09-13T12:42:21.856Z,7.40
2022-09-13T12:45:06.864Z,7.90
2022-09-13T12:48:10.486Z,7.13
2022-09-13T12:50:52.682Z,7.15
2022-09-13T12:53:29.644Z,7.10
2022-09-13T12:56:27.425Z,7.35
2022-09-13T12:59:08.344Z,7.07
2022-09-13T13:01:35.368Z,7.13
2022-09-13T13:04:15.523Z,7.10
2022-09-13T13:06:50.472Z,7.07
2022-09-13T13:09:43.231Z,6.38
2022-09-13T13:12:11.484Z,7.32
2022-09-13T13:14:41.216Z,6.57
2022-09-13T13:17:38.093Z,7.03
2022-09-13T13:20:40.021Z,6.65
2022-09-13T13:23:27.042Z,6.90
2022-09-13T13:26:00.984Z,6.10
2022-09-13T13:28:46.028Z,6.75
2022-09-13T13:31:24.815Z,6.97
2022-09-13T13:34:11.024Z,6.85
2022-09-13T13:36:41.129Z,7.40
2022-09-13T13:39:37.989Z,6.22
2022-09-13T13:42:13.261Z,6.50
2022-09-13T13:44:43.262Z,7.35
2022-09-13T13:47:09.772Z,7.90
2022-09-13T13:49:39.562Z,7.90
2022-09-13T13:52:09.057Z,7.70
2022-09-13T13:54:45.257Z,8.00
2022-09-13T13:57:28.792Z,8.18
2022-09-13T14:00:09.320Z,8.13
2022-09-13T14:02:53.347Z,7.60
2022-09-13T14:05:50.900Z,7.95
2022-09-13T14:08:35.985Z,8.10
2022-09-13T14:11:41.219Z,7.95
2022-09-13T14:14:29.004Z,8.02
2022-09-13T14:17:29.418Z,8.23
2022-09-13T14:20:03.108Z,7.53
2022-09-13T14:22:30.816Z,8.10
2022-09-13T14:25:12.484Z,7.70
2022-09-13T14:27:41.393Z,7.82
2022-09-13T14:30:23.764Z,6.82
2022-09-13T14:32:54.480Z,6.65
2022-09-13T14:35:33.253Z,8.63
2022-09-13T14:38:22.060Z,7.43
2022-09-13T14:40:50.558Z,7.55
2022-09-13T14:43:23.449Z,7.93
2022-09-13T14:46:07.297Z,7.22
2022-09-13T14:48:40.851Z,8.02
2022-09-13T14:51:33.110Z,8.18
2022-09-13T14:54:35.409Z,8.02
2022-09-13T14:57:03.078Z,6.82
2022-09-13T14:59:36.753Z,6.80
2022-09-13T15:02:16.544Z,7.00
2022-09-13T15:04:47.630Z,5.90
2022-09-13T15:07:20.248Z,6.45
2022-09-13T15:09:47.344Z,6.13
2022-09-13T15:12:26.950Z,6.63
2022-09-13T15:15:33.007Z,6.97
2022-09-13T15:18:26.123Z,6.28
2022-09-13T15:21:15.156Z,5.82
2022-09-13T15:23:49.214Z,6.55
2022-09-13T15:26:23.023Z,6.45
2022-09-13T15:29:02.541Z,6.38
2022-09-13T15:31:31.686Z,6.28
2022-09-13T15:34:17.052Z,6.30
2022-09-13T15:36:45.075Z,6.07
2022-09-13T15:39:21.629Z,6.47
2022-09-13T15:42:00.402Z,6.25
2022-09-13T15:44:29.742Z,6.60
2022-09-13T15:47:02.244Z,6.57
2022-09-13T15:49:29.602Z,6.13
2022-09-13T15:51:58.853Z,6.55
2022-09-13T15:54:35.023Z,6.60
2022-09-13T15:57:01.824Z,6.93
2022-09-13T15:59:28.476Z,5.85
2022-09-13T16:01:55.855Z,6.38
2022-09-13T16:04:22.804Z,6.20
2022-09-13T16:06:49.546Z,5.85
2022-09-13T16:09:21.724Z,5.78
2022-09-13T16:11:49.625Z,5.82
2022-09-13T16:14:17.108Z,6.15
2022-09-13T16:16:44.452Z,5.43
2022-09-13T16:19:16.513Z,5.68
2022-09-13T16:21:43.293Z,5.65
2022-09-13T16:24:09.903Z,6.22
2022-09-13T16:26:36.732Z,5.70
2022-09-13T16:29:03.592Z,5.95
2022-09-13T16:31:30.478Z,5.50
2022-09-13T16:33:57.279Z,5.40
2022-09-13T16:36:23.924Z,5.40
2022-09-13T16:38:50.510Z,5.88
2022-09-13T16:41:17.157Z,5.63
2022-09-13T16:43:43.894Z,6.05
2022-09-13T16:46:11.752Z,5.40
2022-09-13T16:48:38.501Z,6.47
2022-09-13T16:51:10.541Z,6.32
2022-09-13T16:53:39.884Z,7.72
2022-09-13T16:56:07.213Z,6.40
2022-09-13T16:58:39.850Z,6.20
2022-09-13T17:01:08.308Z,6.05
2022-09-13T17:03:36.157Z,6.85
2022-09-13T17:06:05.762Z,6.97
2022-09-13T17:08:33.266Z,6.63
2022-09-13T17:11:00.764Z,6.30
2022-09-13T17:13:27.438Z,7.05
2022-09-13T17:15:56.719Z,6.50
2022-09-13T17:18:23.656Z,6.60
2022-09-13T17:20:51.087Z,7.18
2022-09-13T17:23:18.101Z,7.25
2022-09-13T17:25:48.121Z,7.10
2022-09-13T17:28:16.339Z,6.70
2022-09-13T17:30:43.835Z,7.55
2022-09-13T17:33:10.390Z,6.70
2022-09-13T17:35:37.048Z,6.75
2022-09-13T17:38:04.667Z,7.30
2022-09-13T17:40:32.045Z,6.40
2022-09-13T17:42:59.140Z,6.72
2022-09-13T17:45:26.166Z,7.30
2022-09-13T17:47:53.767Z,7.40
2022-09-13T17:50:21.009Z,6.15
2022-09-13T17:52:47.698Z,7.07
2022-09-13T17:55:15.051Z,5.93
2022-09-13T17:57:41.674Z,6.70
2022-09-13T18:00:10.737Z,7.45
2022-09-13T18:02:37.321Z,7.20
2022-09-13T18:05:06.431Z,6.07
2022-09-13T18:07:35.244Z,6.15
2022-09-13T18:10:01.891Z,6.93
2022-09-13T18:12:28.482Z,6.60
2022-09-13T18:14:55.374Z,6.43
2022-09-13T18:17:21.957Z,6.93
2022-09-13T18:19:48.620Z,6.40
2022-09-13T18:22:15.416Z,6.55
2022-09-13T18:24:42.168Z,5.57
2022-09-13T18:27:08.924Z,6.43
2022-09-13T18:29:35.572Z,5.85
2022-09-13T18:32:02.279Z,5.82
2022-09-13T18:34:28.879Z,6.10
2022-09-13T18:36:55.423Z,5.57
2022-09-13T18:39:22.949Z,6.28
2022-09-13T18:41:50.145Z,6.32
2022-09-13T18:44:17.900Z,6.07
2022-09-13T18:46:44.848Z,5.60
2022-09-13T18:49:11.531Z,5.85
2022-09-13T18:51:39.632Z,5.97
2022-09-13T18:54:07.820Z,5.55
2022-09-13T18:56:35.042Z,5.72
2022-09-13T18:59:05.328Z,5.18
2022-09-13T19:01:35.156Z,6.47
2022-09-13T19:04:05.299Z,5.53
2022-09-13T19:06:37.963Z,5.72
2022-09-13T19:09:06.410Z,5.85
2022-09-13T19:11:46.254Z,5.07
2022-09-13T19:14:15.633Z,6.28
2022-09-13T19:16:42.366Z,6.15
2022-09-13T19:19:09.055Z,7.25
2022-09-13T19:21:36.193Z,7.07
2022-09-13T19:24:07.980Z,6.82
2022-09-13T19:26:39.024Z,7.03
2022-09-13T19:29:14.461Z,6.90
2022-09-13T19:31:44.813Z,6.93
2022-09-13T19:34:12.198Z,7.18
2022-09-13T19:36:39.574Z,7.90
2022-09-13T19:39:07.411Z,8.02
2022-09-13T19:41:34.585Z,7.82
2022-09-13T19:44:02.339Z,7.07
2022-09-13T19:46:32.852Z,7.00
2022-09-13T19:49:00.963Z,6.25
2022-09-13T19:51:39.160Z,6.00
2022-09-13T19:54:07.651Z,5.07
2022-09-13T19:56:38.119Z,5.68
2022-09-13T19:59:06.149Z,5.50
2022-09-13T20:01:39.190Z,5.03
2022-09-13T20:04:08.925Z,5.70
2022-09-13T20:06:47.436Z,5.65
2022-09-13T20:09:15.937Z,5.10
2022-09-13T20:11:47.362Z,5.10
2022-09-13T20:14:15.509Z,5.90
2022-09-13T20:16:43.048Z,5.30
2022-09-13T20:19:39.051Z,5.32
2022-09-13T20:22:03.042Z,5.15
2022-09-13T20:24:29.677Z,5.10
2022-09-13T20:26:56.273Z,5.63
2022-09-13T20:29:23.553Z,5.25
2022-09-13T20:31:50.177Z,5.00
2022-09-13T20:34:16.799Z,4.70
2022-09-13T20:36:47.231Z,4.28
2022-09-13T20:39:15.244Z,4.55
2022-09-13T20:41:43.078Z,4.30
2022-09-13T20:44:09.719Z,4.00
2022-09-13T20:46:37.583Z,4.97
2022-09-13T20:49:05.356Z,4.53
2022-09-13T20:51:34.700Z,4.63
2022-09-13T20:54:01.644Z,4.95
2022-09-13T20:56:30.280Z,4.97
2022-09-13T20:59:00.358Z,5.47
2022-09-13T21:01:28.858Z,4.97
2022-09-13T21:03:56.471Z,4.82
2022-09-13T21:06:26.383Z,4.80
2022-09-13T21:08:53.444Z,5.32
2022-09-13T21:11:33.369Z,5.28
2022-09-13T21:14:02.748Z,4.63
2022-09-13T21:16:33.239Z,5.18
2022-09-13T21:19:00.798Z,4.93
2022-09-13T21:21:30.058Z,5.05
2022-09-13T21:23:57.511Z,5.25
2022-09-13T21:26:26.861Z,5.25
2022-09-13T21:28:55.456Z,4.55
2022-09-13T21:31:25.013Z,4.90
2022-09-13T21:33:56.640Z,4.90
2022-09-13T21:36:23.986Z,4.78
2022-09-13T21:38:51.507Z,4.57
2022-09-13T21:41:18.702Z,4.22
2022-09-13T21:43:48.579Z,4.07
2022-09-13T21:46:21.426Z,4.15
2022-09-13T21:49:00.240Z,3.60
2022-09-13T21:51:30.190Z,3.90
2022-09-13T21:53:59.419Z,3.92
2022-09-13T21:56:28.604Z,3.85
2022-09-13T21:59:04.424Z,4.15
2022-09-13T22:01:35.194Z,3.58
2022-09-13T22:04:02.868Z,4.50
2022-09-13T22:06:35.061Z,4.63
2022-09-13T22:09:05.263Z,4.85
2022-09-13T22:11:38.513Z,5.75
2022-09-13T22:14:07.346Z,5.13
2022-09-13T22:16:36.796Z,5.05
2022-09-13T22:19:14.283Z,4.97
2022-09-13T22:21:43.849Z,4.90
2022-09-13T22:24:18.028Z,5.03
2022-09-13T22:29:14.839Z,4.20
2022-09-13T22:31:43.196Z,4.57
2022-09-13T22:34:20.645Z,4.93
2022-09-13T22:36:48.586Z,4.45
2022-09-13T22:39:16.526Z,4.80
2022-09-13T22:41:43.772Z,4.07
2022-09-13T22:44:22.558Z,4.10
2022-09-13T22:46:49.119Z,4.32
2022-09-13T22:49:18.281Z,4.18
2022-09-13T22:51:47.434Z,3.97
2022-09-13T22:54:15.983Z,4.30
2022-09-13T22:56:42.775Z,4.20
2022-09-13T22:59:14.576Z,3.83
2022-09-13T23:01:41.597Z,3.95
2022-09-13T23:04:08.363Z,3.97
2022-09-13T23:06:35.615Z,3.67
2022-09-13T23:09:06.067Z,3.50
2022-09-13T23:11:38.026Z,4.20
2022-09-13T23:14:07.504Z,3.70
2022-09-13T23:16:44.237Z,3.67
2022-09-13T23:19:12.878Z,3.40
2022-09-13T23:21:40.564Z,3.50
2022-09-13T23:24:10.880Z,3.15
2022-09-13T23:26:37.773Z,3.92
2022-09-13T23:29:05.330Z,3.10
2022-09-13T23:31:34.988Z,2.95
2022-09-13T23:34:04.277Z,3.45
2022-09-13T23:36:36.544Z,3.08
2022-09-13T23:39:05.421Z,3.17
2022-09-13T23:41:33.315Z,3.40
2022-09-13T23:44:00.763Z,3.15
2022-09-13T23:46:28.070Z,3.08
2022-09-13T23:48:55.620Z,2.97
2022-09-13T23:51:24.689Z,3.25
2022-09-13T23:53:56.887Z,2.78
2022-09-13T23:56:25.903Z,3.30
2022-09-13T23:58:52.628Z,3.20
